URMT 031430Z 12008MPS 9999 BKN029 04/00 Q1017 R07/150060 NOSIG RMK QFE723
QNH:(hPa/inHg/mmHg)1017 / 30.03 / 763
QFE:(hPa/inHg/mmHg)962 / 28.41 / 722
Temperature4
Dew Point0
Visibility> 10000
Weather
Cloud CoverBKN (2900);
Transition Altitude5000 ft.
Transition LevelFL60
SQUAWK